Time;durP1;ratioP1;P1;durP2;ratioP2;P2;SDS_P1;SDS_P2;PMS_P1;PMS_P2;Temp;Humidity;BMP_temperature;BMP_pressure;BME280_temperature;BME280_humidity;BME280_pressure;Samples;Min_cycle;Max_cycle;Signal;HPM_P1;HPM_P2
2022/11/15 00:02:15;;;;;;;40.03;23.55;;;;;;;;;;5036466;28;20041;-65
2022/11/15 00:04:41;;;;;;;33.42;23.30;;;;;;;;;;5039365;28;20523;-65
2022/11/15 00:07:07;;;;;;;40.63;24.30;;;;;;;;;;5034737;28;20468;-66
2022/11/15 00:09:33;;;;;;;34.33;23.50;;;;;;;;;;5038312;28;20439;-66
2022/11/15 00:11:59;;;;;;;37.75;22.98;;;;;;;;;;5037183;28;20493;-66
2022/11/15 00:14:25;;;;;;;36.28;24.30;;;;;;;;;;5037782;28;20364;-66
2022/11/15 00:16:51;;;;;;;36.75;24.02;;;;;;;;;;5038592;28;20088;-66
2022/11/15 00:19:18;;;;;;;38.78;23.63;;;;;;;;;;5038561;28;20065;-66
2022/11/15 00:21:44;;;;;;;36.10;24.05;;;;;;;;;;5067828;28;20099;-66
2022/11/15 00:24:10;;;;;;;35.25;24.42;;;;;;;;;;5038122;28;20048;-66
2022/11/15 00:26:36;;;;;;;38.85;24.48;;;;;;;;;;5041625;28;20048;-66
2022/11/15 00:29:02;;;;;;;36.90;22.83;;;;;;;;;;5039230;28;20047;-66
2022/11/15 00:31:28;;;;;;;36.42;22.85;;;;;;;;;;5040894;28;20099;-66
2022/11/15 00:33:55;;;;;;;38.58;24.70;;;;;;;;;;5036630;28;20475;-66
2022/11/15 00:36:21;;;;;;;39.08;23.60;;;;;;;;;;5038925;28;20116;-66
2022/11/15 00:38:47;;;;;;;40.10;25.23;;;;;;;;;;5038121;28;20045;-66
2022/11/15 00:41:13;;;;;;;34.25;23.48;;;;;;;;;;5039543;28;20056;-66
2022/11/15 00:43:39;;;;;;;31.50;22.42;;;;;;;;;;5037792;28;20052;-66
2022/11/15 00:46:07;;;;;;;32.05;22.92;;;;;;;;;;5033813;28;20430;-66
2022/11/15 00:48:34;;;;;;;35.20;22.63;;;;;;;;;;5037037;28;20520;-66
2022/11/15 00:51:00;;;;;;;36.28;23.63;;;;;;;;;;5039271;28;20500;-66
2022/11/15 00:53:26;;;;;;;35.53;23.13;;;;;;;;;;5038967;28;20109;-66
2022/11/15 00:55:52;;;;;;;37.20;23.95;;;;;;;;;;5038086;28;20742;-66
2022/11/15 00:58:18;;;;;;;40.33;22.73;;;;;;;;;;5038196;28;20029;-66
2022/11/15 01:00:44;;;;;;;35.40;23.13;;;;;;;;;;5037998;28;20151;-66
2022/11/15 01:03:11;;;;;;;34.38;23.15;;;;;;;;;;5037986;28;20038;-67
2022/11/15 01:05:38;;;;;;;36.15;22.80;;;;;;;;;;5037852;28;20448;-66
2022/11/15 01:08:05;;;;;;;33.35;22.45;;;;;;;;;;5035288;28;20060;-66
2022/11/15 01:10:31;;;;;;;33.00;22.92;;;;;;;;;;5034730;28;20124;-67
2022/11/15 01:12:57;;;;;;;35.78;24.08;;;;;;;;;;5038565;28;20041;-67
2022/11/15 01:15:24;;;;;;;32.78;22.98;;;;;;;;;;5033980;28;20045;-66
2022/11/15 01:17:50;;;;;;;35.25;24.65;;;;;;;;;;5040117;28;20081;-67
2022/11/15 01:20:16;;;;;;;35.63;23.85;;;;;;;;;;5040980;28;20056;-67
2022/11/15 01:22:42;;;;;;;37.92;25.42;;;;;;;;;;5036501;28;20067;-67
2022/11/15 01:25:08;;;;;;;36.22;25.00;;;;;;;;;;5037169;28;20125;-66
2022/11/15 01:27:34;;;;;;;39.90;25.48;;;;;;;;;;5038380;28;20052;-66
2022/11/15 01:30:00;;;;;;;37.40;26.23;;;;;;;;;;5038985;28;20045;-66
2022/11/15 01:32:27;;;;;;;39.28;26.17;;;;;;;;;;5037325;28;20036;-67
2022/11/15 01:34:53;;;;;;;37.47;25.85;;;;;;;;;;5036626;28;20186;-67
2022/11/15 01:37:19;;;;;;;37.20;26.13;;;;;;;;;;5034688;28;20168;-66
2022/11/15 01:39:45;;;;;;;41.83;26.55;;;;;;;;;;5031985;28;20041;-66
2022/11/15 01:42:13;;;;;;;37.95;25.85;;;;;;;;;;5037424;28;20060;-66
2022/11/15 01:44:41;;;;;;;41.67;27.75;;;;;;;;;;5037960;28;21095;-67
2022/11/15 01:47:13;;;;;;;39.58;26.50;;;;;;;;;;5033836;28;20077;-67
2022/11/15 01:49:43;;;;;;;39.63;26.73;;;;;;;;;;5035919;28;20074;-66
2022/11/15 01:52:11;;;;;;;40.55;26.02;;;;;;;;;;5033534;28;20049;-67
2022/11/15 01:54:37;;;;;;;39.50;26.75;;;;;;;;;;5036781;28;20430;-66
2022/11/15 01:57:06;;;;;;;43.50;27.48;;;;;;;;;;5069653;28;20068;-67
2022/11/15 01:59:33;;;;;;;43.97;27.95;;;;;;;;;;5031860;28;20250;-66
2022/11/15 02:01:59;;;;;;;41.88;28.30;;;;;;;;;;5031853;28;20388;-66
2022/11/15 02:04:28;;;;;;;46.30;28.40;;;;;;;;;;5034568;28;20083;-66
2022/11/15 02:06:54;;;;;;;45.05;28.35;;;;;;;;;;5070878;28;20049;-67
2022/11/15 02:09:21;;;;;;;43.95;28.38;;;;;;;;;;5037252;28;20055;-67
2022/11/15 02:11:47;;;;;;;46.08;29.55;;;;;;;;;;5045315;28;20488;-67
2022/11/15 02:14:15;;;;;;;47.15;29.50;;;;;;;;;;5032266;28;20119;-66
2022/11/15 02:16:45;;;;;;;43.08;27.27;;;;;;;;;;5066781;28;20053;-66
2022/11/15 02:19:29;;;;;;;46.38;27.67;;;;;;;;;;5037479;28;20049;-66
2022/11/15 02:22:06;;;;;;;48.40;28.13;;;;;;;;;;5035990;28;21306;-66
2022/11/15 02:24:45;;;;;;;43.50;26.33;;;;;;;;;;5039589;28;20056;-66
2022/11/15 02:27:18;;;;;;;44.38;27.05;;;;;;;;;;5038423;28;20064;-67
2022/11/15 02:29:44;;;;;;;41.57;25.57;;;;;;;;;;5032128;28;20049;-66
2022/11/15 02:32:15;;;;;;;41.30;25.50;;;;;;;;;;5034281;28;20048;-66
2022/11/15 02:34:48;;;;;;;42.08;24.02;;;;;;;;;;5034310;28;20053;-68
2022/11/15 02:37:18;;;;;;;41.38;24.33;;;;;;;;;;5035114;28;20042;-66
2022/11/15 02:39:55;;;;;;;43.20;25.00;;;;;;;;;;5031942;28;20056;-66
2022/11/15 02:45:13;;;;;;;47.97;25.52;;;;;;;;;;5068122;28;20121;-66
2022/11/15 02:47:43;;;;;;;44.20;25.52;;;;;;;;;;5031193;28;20044;-67
2022/11/15 02:50:11;;;;;;;42.78;26.08;;;;;;;;;;5032725;28;20345;-66
2022/11/15 02:52:37;;;;;;;44.95;26.23;;;;;;;;;;5033700;28;20511;-67
2022/11/15 02:55:03;;;;;;;45.70;27.23;;;;;;;;;;5035147;28;20040;-66
2022/11/15 02:57:29;;;;;;;47.35;25.55;;;;;;;;;;5032816;28;20150;-66
2022/11/15 03:00:03;;;;;;;49.22;27.95;;;;;;;;;;5033194;28;20467;-67
2022/11/15 03:02:37;;;;;;;46.55;25.60;;;;;;;;;;5035746;28;20053;-67
2022/11/15 03:05:03;;;;;;;;;;;;;;;;;;5037972;28;20522;-66
2022/11/15 03:07:32;;;;;;;55.15;26.00;;;;;;;;;;5037824;28;19925;-66
2022/11/15 03:10:06;;;;;;;50.55;27.80;;;;;;;;;;5065346;28;20465;-66
2022/11/15 03:12:44;;;;;;;55.58;30.15;;;;;;;;;;5036285;28;20041;-66
2022/11/15 03:15:14;;;;;;;63.20;30.70;;;;;;;;;;5033183;28;20052;-66
2022/11/15 03:17:43;;;;;;;58.00;29.75;;;;;;;;;;5035472;28;20044;-66
2022/11/15 03:20:11;;;;;;;67.93;30.67;;;;;;;;;;5033423;28;21995;-67
2022/11/15 03:22:38;;;;;;;66.18;32.33;;;;;;;;;;5040879;28;20052;-66
2022/11/15 03:25:06;;;;;;;65.32;31.38;;;;;;;;;;5040755;28;20036;-66
2022/11/15 03:27:36;;;;;;;66.43;31.90;;;;;;;;;;5041416;28;20061;-67
2022/11/15 03:30:04;;;;;;;67.47;32.00;;;;;;;;;;5042833;28;20049;-66
2022/11/15 03:32:32;;;;;;;67.97;31.67;;;;;;;;;;5038026;28;20464;-66
2022/11/15 03:35:02;;;;;;;66.20;32.58;;;;;;;;;;5071074;28;20041;-66
2022/11/15 03:37:37;;;;;;;70.20;31.70;;;;;;;;;;5034115;28;20147;-66
2022/11/15 03:40:04;;;;;;;74.95;34.58;;;;;;;;;;5072811;28;20049;-66
2022/11/15 03:42:30;;;;;;;70.82;32.45;;;;;;;;;;5041562;28;20041;-66
2022/11/15 03:45:03;;;;;;;72.57;33.30;;;;;;;;;;5044556;28;20132;-66
2022/11/15 03:47:36;;;;;;;82.73;34.83;;;;;;;;;;5042283;28;20572;-67
2022/11/15 03:50:07;;;;;;;72.63;32.20;;;;;;;;;;5039127;28;20041;-66
2022/11/15 03:52:34;;;;;;;84.30;33.00;;;;;;;;;;5067494;28;21868;-67
2022/11/15 03:55:02;;;;;;;82.35;33.72;;;;;;;;;;5041579;28;20972;-66
2022/11/15 03:57:28;;;;;;;76.38;32.83;;;;;;;;;;5040441;28;20040;-66
2022/11/15 03:59:54;;;;;;;77.43;34.58;;;;;;;;;;5073322;28;20138;-67
2022/11/15 04:02:20;;;;;;;87.72;35.15;;;;;;;;;;5041953;28;20106;-67
2022/11/15 04:04:46;;;;;;;86.38;35.05;;;;;;;;;;5041145;28;20079;-67
2022/11/15 04:07:12;;;;;;;100.45;35.10;;;;;;;;;;5039401;28;20132;-67
2022/11/15 04:10:01;;;;;;;95.47;36.80;;;;;;;;;;5042696;28;20396;-66
2022/11/15 04:12:30;;;;;;;94.25;35.80;;;;;;;;;;5042805;28;20095;-67
2022/11/15 04:15:07;;;;;;;96.13;36.67;;;;;;;;;;5040010;28;20136;-66
2022/11/15 04:17:37;;;;;;;101.90;37.70;;;;;;;;;;5042786;28;20144;-67
2022/11/15 04:25:34;;;;;;;114.60;38.83;;;;;;;;;;5070627;28;20053;-67
2022/11/15 04:28:00;;;;;;;116.70;38.60;;;;;;;;;;5041388;28;20934;-67
2022/11/15 04:30:26;;;;;;;109.13;38.60;;;;;;;;;;5040332;28;20037;-67
2022/11/15 04:32:52;;;;;;;110.05;37.78;;;;;;;;;;5039493;28;20091;-67
2022/11/15 04:35:18;;;;;;;123.15;39.67;;;;;;;;;;5033283;28;20037;-67
2022/11/15 04:37:44;;;;;;;112.85;39.88;;;;;;;;;;5032878;28;20045;-67
2022/11/15 04:40:11;;;;;;;116.78;38.70;;;;;;;;;;5038995;28;20045;-67
2022/11/15 04:42:37;;;;;;;117.93;39.38;;;;;;;;;;5038349;28;20041;-67
2022/11/15 04:45:03;;;;;;;119.88;39.35;;;;;;;;;;5038077;28;20096;-67
2022/11/15 04:47:29;;;;;;;118.47;41.00;;;;;;;;;;5039265;28;20120;-67
2022/11/15 04:49:55;;;;;;;128.73;40.25;;;;;;;;;;5037388;28;20174;-67
2022/11/15 04:52:21;;;;;;;126.65;40.47;;;;;;;;;;5037771;28;20091;-67
2022/11/15 04:54:48;;;;;;;127.75;40.55;;;;;;;;;;5036847;28;20048;-67
2022/11/15 04:57:14;;;;;;;122.35;41.45;;;;;;;;;;5037409;28;20468;-67
2022/11/15 04:59:41;;;;;;;118.78;41.08;;;;;;;;;;5038039;28;20459;-67
2022/11/15 05:02:07;;;;;;;131.73;43.25;;;;;;;;;;5037644;28;20067;-67
2022/11/15 05:04:33;;;;;;;148.93;42.22;;;;;;;;;;5036750;28;20056;-67
2022/11/15 05:06:59;;;;;;;138.63;43.33;;;;;;;;;;5038817;28;20052;-67
2022/11/15 05:09:25;;;;;;;146.40;43.58;;;;;;;;;;5038915;28;20120;-67
2022/11/15 05:11:51;;;;;;;145.60;44.88;;;;;;;;;;5070573;28;20056;-67
2022/11/15 05:14:17;;;;;;;146.23;44.10;;;;;;;;;;5054738;28;20180;-67
2022/11/15 05:16:44;;;;;;;164.73;45.83;;;;;;;;;;5034227;28;20161;-67
2022/11/15 05:19:10;;;;;;;158.15;45.28;;;;;;;;;;5035132;28;20049;-67
2022/11/15 05:21:36;;;;;;;179.10;48.78;;;;;;;;;;5038557;28;20060;-68
2022/11/15 05:24:03;;;;;;;174.00;49.67;;;;;;;;;;5039477;28;20128;-67
2022/11/15 05:26:29;;;;;;;173.00;50.90;;;;;;;;;;5041238;28;20056;-67
2022/11/15 05:28:56;;;;;;;198.15;51.20;;;;;;;;;;5037982;28;20048;-67
2022/11/15 05:31:22;;;;;;;181.45;50.13;;;;;;;;;;5039107;28;20049;-67
2022/11/15 05:33:49;;;;;;;201.48;51.95;;;;;;;;;;5034836;28;20132;-67
2022/11/15 05:36:21;;;;;;;186.90;53.72;;;;;;;;;;5035021;28;20064;-67
2022/11/15 05:38:48;;;;;;;212.60;53.78;;;;;;;;;;5034153;28;20094;-67
2022/11/15 05:41:15;;;;;;;210.32;56.42;;;;;;;;;;5038724;28;20471;-67
2022/11/15 05:43:42;;;;;;;213.55;56.50;;;;;;;;;;5041600;28;20488;-67
2022/11/15 05:46:08;;;;;;;220.43;58.60;;;;;;;;;;5055637;28;20098;-67
2022/11/15 05:48:35;;;;;;;225.52;60.30;;;;;;;;;;5033120;28;20400;-67
2022/11/15 05:51:02;;;;;;;236.25;58.55;;;;;;;;;;5033511;28;20128;-67
2022/11/15 05:53:28;;;;;;;255.93;60.80;;;;;;;;;;5032330;28;20045;-67
2022/11/15 05:55:54;;;;;;;242.70;60.92;;;;;;;;;;5033487;28;20445;-67
2022/11/15 05:58:21;;;;;;;257.55;63.72;;;;;;;;;;5034409;28;20462;-67
2022/11/15 06:00:47;;;;;;;270.88;67.60;;;;;;;;;;5038024;28;20051;-65
2022/11/15 06:03:14;;;;;;;273.00;67.43;;;;;;;;;;5037544;28;20051;-65
2022/11/15 06:05:40;;;;;;;274.95;67.53;;;;;;;;;;5034871;28;20049;-65
2022/11/15 06:08:06;;;;;;;319.02;68.07;;;;;;;;;;5035418;28;20146;-67
2022/11/15 06:10:33;;;;;;;322.05;70.70;;;;;;;;;;5039360;28;20053;-67
2022/11/15 06:13:01;;;;;;;311.25;69.20;;;;;;;;;;5036395;28;20037;-67
2022/11/15 06:15:27;;;;;;;340.55;74.22;;;;;;;;;;5036301;28;20057;-67
2022/11/15 06:17:57;;;;;;;349.83;73.90;;;;;;;;;;5037258;28;20052;-67
2022/11/15 06:20:23;;;;;;;326.60;74.32;;;;;;;;;;5035053;28;20074;-67
2022/11/15 06:22:49;;;;;;;322.83;75.32;;;;;;;;;;5037968;28;20563;-67
2022/11/15 06:25:16;;;;;;;331.17;74.40;;;;;;;;;;5071670;28;20460;-67
2022/11/15 06:27:42;;;;;;;302.80;74.28;;;;;;;;;;5033227;28;20045;-67
2022/11/15 06:30:08;;;;;;;282.67;71.50;;;;;;;;;;5036701;28;20185;-67
2022/11/15 06:32:34;;;;;;;295.08;73.13;;;;;;;;;;5067594;28;20041;-67
2022/11/15 06:35:00;;;;;;;290.77;73.05;;;;;;;;;;5034037;28;20052;-67
2022/11/15 06:37:26;;;;;;;264.85;70.80;;;;;;;;;;5032765;28;20068;-67
2022/11/15 06:39:53;;;;;;;228.77;66.85;;;;;;;;;;5039772;28;20045;-67
2022/11/15 06:42:19;;;;;;;267.75;74.45;;;;;;;;;;5037850;28;20045;-67
2022/11/15 06:44:45;;;;;;;225.27;68.32;;;;;;;;;;5066941;28;20180;-67
2022/11/15 06:47:11;;;;;;;229.13;68.38;;;;;;;;;;5037266;28;20044;-66
2022/11/15 06:49:37;;;;;;;227.23;68.35;;;;;;;;;;5038217;28;20049;-66
2022/11/15 06:52:03;;;;;;;231.63;68.75;;;;;;;;;;5041606;28;20045;-66
2022/11/15 06:54:29;;;;;;;252.18;70.90;;;;;;;;;;5034127;28;20056;-67
2022/11/15 06:56:56;;;;;;;217.18;67.60;;;;;;;;;;5035251;28;20033;-66
2022/11/15 06:59:22;;;;;;;239.82;71.65;;;;;;;;;;5037184;28;20053;-67
2022/11/15 07:01:49;;;;;;;216.05;68.72;;;;;;;;;;5037306;28;20053;-67
2022/11/15 07:04:15;;;;;;;216.40;69.45;;;;;;;;;;5034268;28;20053;-67
2022/11/15 07:06:41;;;;;;;246.65;71.40;;;;;;;;;;5036605;28;20145;-67
2022/11/15 07:09:08;;;;;;;231.18;70.38;;;;;;;;;;5040743;28;20044;-67
2022/11/15 07:11:34;;;;;;;217.45;68.03;;;;;;;;;;5032367;28;20119;-67
2022/11/15 07:14:01;;;;;;;233.77;72.55;;;;;;;;;;5038726;28;20205;-67
2022/11/15 07:16:27;;;;;;;204.75;66.60;;;;;;;;;;5034982;28;20055;-67
2022/11/15 07:18:53;;;;;;;216.98;70.72;;;;;;;;;;5037611;28;20481;-67
2022/11/15 07:21:19;;;;;;;217.05;70.45;;;;;;;;;;5030891;28;20342;-67
2022/11/15 07:23:46;;;;;;;235.63;72.40;;;;;;;;;;5073039;28;20048;-67
2022/11/15 07:26:12;;;;;;;210.80;69.25;;;;;;;;;;5040496;28;20045;-67
2022/11/15 07:28:38;;;;;;;211.35;70.38;;;;;;;;;;5038743;28;20045;-67
2022/11/15 07:31:05;;;;;;;240.75;71.32;;;;;;;;;;5044326;28;20402;-67
2022/11/15 07:33:31;;;;;;;215.02;70.03;;;;;;;;;;5045358;28;20040;-67
2022/11/15 07:36:01;;;;;;;212.07;69.28;;;;;;;;;;5067324;28;20361;-67
2022/11/15 07:38:28;;;;;;;185.05;67.85;;;;;;;;;;5065642;28;20049;-67
2022/11/15 07:41:01;;;;;;;206.05;68.72;;;;;;;;;;5036497;28;20396;-66
2022/11/15 07:43:27;;;;;;;169.95;62.50;;;;;;;;;;5039780;28;20064;-66
2022/11/15 07:45:54;;;;;;;186.57;63.47;;;;;;;;;;5039443;28;20049;-66
2022/11/15 07:48:20;;;;;;;161.05;60.08;;;;;;;;;;5038072;28;20089;-66
2022/11/15 07:50:46;;;;;;;163.25;63.00;;;;;;;;;;5053752;28;20451;-66
2022/11/15 07:53:12;;;;;;;157.40;59.33;;;;;;;;;;5037612;28;20093;-66
2022/11/15 07:55:40;;;;;;;139.70;57.13;;;;;;;;;;5039836;28;20395;-66
2022/11/15 07:58:07;;;;;;;145.05;57.83;;;;;;;;;;5039644;28;20048;-69
2022/11/15 08:00:34;;;;;;;134.32;55.33;;;;;;;;;;5038298;28;20070;-68
2022/11/15 08:03:02;;;;;;;130.90;56.42;;;;;;;;;;5037804;28;20179;-67
2022/11/15 08:05:28;;;;;;;123.97;55.38;;;;;;;;;;5040180;28;20060;-67
2022/11/15 08:07:55;;;;;;;119.75;52.90;;;;;;;;;;5040898;28;20539;-67
2022/11/15 08:10:22;;;;;;;122.68;53.03;;;;;;;;;;5043286;28;20060;-67
2022/11/15 08:12:48;;;;;;;130.38;56.28;;;;;;;;;;5044111;28;20041;-66
2022/11/15 08:15:14;;;;;;;116.03;52.28;;;;;;;;;;5043768;28;20056;-67
2022/11/15 08:17:40;;;;;;;110.63;52.53;;;;;;;;;;5043639;28;20045;-67
2022/11/15 08:20:07;;;;;;;107.82;50.80;;;;;;;;;;5045099;28;20064;-64
2022/11/15 08:22:34;;;;;;;104.70;49.00;;;;;;;;;;5041581;28;20090;-65
2022/11/15 08:25:00;;;;;;;112.47;49.15;;;;;;;;;;5043803;28;20056;-64
2022/11/15 08:27:26;;;;;;;104.22;47.58;;;;;;;;;;5038909;28;20063;-64
2022/11/15 08:29:52;;;;;;;107.50;50.15;;;;;;;;;;5035252;28;20056;-64
2022/11/15 08:32:18;;;;;;;99.78;49.50;;;;;;;;;;5040201;28;20326;-65
2022/11/15 08:34:45;;;;;;;100.05;47.63;;;;;;;;;;5041237;28;20037;-65
2022/11/15 08:37:11;;;;;;;101.90;48.83;;;;;;;;;;5043782;28;20045;-66
2022/11/15 08:39:37;;;;;;;100.55;49.50;;;;;;;;;;5036138;28;20053;-65
2022/11/15 08:42:03;;;;;;;93.07;44.88;;;;;;;;;;5041601;28;20052;-65
2022/11/15 08:44:30;;;;;;;92.20;45.45;;;;;;;;;;5043423;28;20053;-65
2022/11/15 08:46:56;;;;;;;87.43;46.03;;;;;;;;;;5042597;28;20044;-66
2022/11/15 08:49:22;;;;;;;91.63;45.70;;;;;;;;;;5040367;28;20127;-66
2022/11/15 08:51:48;;;;;;;87.95;44.72;;;;;;;;;;5040742;28;20106;-66
2022/11/15 08:54:14;;;;;;;89.72;44.47;;;;;;;;;;5041185;28;20112;-65
2022/11/15 08:56:41;;;;;;;84.40;44.97;;;;;;;;;;5072102;28;20055;-66
2022/11/15 08:59:07;;;;;;;82.18;44.65;;;;;;;;;;5044313;28;20048;-65
2022/11/15 09:01:33;;;;;;;86.00;46.38;;;;;;;;;;5042045;28;20459;-65
2022/11/15 09:03:59;;;;;;;87.55;44.03;;;;;;;;;;5074224;28;20084;-66
2022/11/15 09:06:25;;;;;;;75.70;42.58;;;;;;;;;;5043121;28;20456;-65
2022/11/15 09:08:51;;;;;;;74.07;40.65;;;;;;;;;;5039112;28;20159;-65
2022/11/15 09:11:20;;;;;;;83.00;41.30;;;;;;;;;;5040652;28;20045;-66
2022/11/15 09:13:46;;;;;;;71.88;40.63;;;;;;;;;;5044589;28;20123;-65
2022/11/15 09:16:12;;;;;;;76.00;41.15;;;;;;;;;;5044833;28;20048;-66
2022/11/15 09:18:38;;;;;;;73.47;40.47;;;;;;;;;;5040753;28;20120;-66
2022/11/15 09:21:05;;;;;;;68.65;40.25;;;;;;;;;;5042508;28;20067;-66
2022/11/15 09:23:31;;;;;;;67.95;39.42;;;;;;;;;;5071377;28;20588;-66
2022/11/15 09:25:59;;;;;;;58.38;35.72;;;;;;;;;;5073008;28;20500;-66
2022/11/15 09:28:26;;;;;;;72.63;34.30;;;;;;;;;;5045266;28;20052;-65
2022/11/15 09:30:52;;;;;;;62.33;37.10;;;;;;;;;;5072636;28;20148;-66
2022/11/15 09:33:18;;;;;;;64.63;36.22;;;;;;;;;;5043157;28;20084;-66
2022/11/15 09:35:44;;;;;;;58.30;35.88;;;;;;;;;;5038710;28;20056;-66
2022/11/15 09:38:10;;;;;;;53.95;33.63;;;;;;;;;;5039097;28;20059;-65
2022/11/15 09:40:37;;;;;;;57.55;35.22;;;;;;;;;;5024106;28;20037;-65
2022/11/15 09:43:09;;;;;;;60.10;33.78;;;;;;;;;;5039615;28;20795;-65
2022/11/15 09:45:41;;;;;;;57.00;31.75;;;;;;;;;;5044959;28;20086;-65
2022/11/15 09:48:14;;;;;;;46.08;30.42;;;;;;;;;;5070155;28;20393;-65
2022/11/15 09:50:46;;;;;;;47.83;32.60;;;;;;;;;;5044335;28;20033;-66
2022/11/15 09:53:14;;;;;;;58.08;33.78;;;;;;;;;;5043615;28;20060;-66
2022/11/15 09:55:50;;;;;;;59.42;33.70;;;;;;;;;;5074207;28;20052;-66
2022/11/15 09:58:25;;;;;;;52.38;32.17;;;;;;;;;;5070999;28;20498;-65
2022/11/15 10:00:53;;;;;;;56.85;33.22;;;;;;;;;;5074936;28;20317;-66
2022/11/15 10:03:19;;;;;;;49.80;32.00;;;;;;;;;;5072483;28;21889;-65
2022/11/15 10:05:47;;;;;;;51.30;32.33;;;;;;;;;;5056405;28;20611;-65
2022/11/15 10:08:23;;;;;;;52.80;33.35;;;;;;;;;;5043642;28;20052;-65
2022/11/15 10:10:52;;;;;;;51.97;33.42;;;;;;;;;;5043673;28;20064;-65
2022/11/15 10:13:22;;;;;;;52.13;32.25;;;;;;;;;;5039538;28;20518;-65
2022/11/15 10:15:50;;;;;;;51.90;32.55;;;;;;;;;;5038106;28;20044;-65
2022/11/15 10:18:20;;;;;;;50.67;32.97;;;;;;;;;;5038438;28;20045;-65
2022/11/15 10:20:49;;;;;;;53.00;32.67;;;;;;;;;;5041922;28;20045;-65
2022/11/15 10:23:16;;;;;;;65.40;31.90;;;;;;;;;;5039937;28;20041;-65
2022/11/15 10:25:43;;;;;;;46.03;28.40;;;;;;;;;;5040199;28;20099;-65
2022/11/15 10:28:13;;;;;;;48.17;28.83;;;;;;;;;;5041184;28;20045;-66
2022/11/15 10:30:41;;;;;;;41.03;28.63;;;;;;;;;;5042788;28;20157;-65
2022/11/15 10:33:21;;;;;;;39.67;28.08;;;;;;;;;;5070924;28;20049;-65
2022/11/15 10:35:47;;;;;;;42.55;28.15;;;;;;;;;;5040952;28;20052;-65
2022/11/15 10:38:13;;;;;;;43.50;29.10;;;;;;;;;;5043092;28;20044;-65
2022/11/15 10:40:40;;;;;;;42.10;28.67;;;;;;;;;;5041815;28;20118;-65
2022/11/15 10:43:14;;;;;;;43.40;28.73;;;;;;;;;;5039136;28;20429;-65
2022/11/15 10:45:40;;;;;;;36.28;27.73;;;;;;;;;;5040558;28;20037;-65
2022/11/15 10:48:22;;;;;;;40.15;26.33;;;;;;;;;;5038573;28;20076;-65
2022/11/15 10:50:49;;;;;;;43.63;24.95;;;;;;;;;;5039434;28;20448;-65
2022/11/15 10:53:19;;;;;;;38.75;23.90;;;;;;;;;;5039076;28;20076;-65
2022/11/15 10:55:47;;;;;;;36.10;21.83;;;;;;;;;;5072248;28;20385;-65
2022/11/15 10:58:23;;;;;;;37.35;24.65;;;;;;;;;;5041530;28;20106;-65
2022/11/15 11:00:49;;;;;;;35.42;24.50;;;;;;;;;;5041544;28;20056;-65
2022/11/15 11:03:21;;;;;;;38.22;24.58;;;;;;;;;;5039547;28;20447;-65
2022/11/15 11:05:48;;;;;;;31.10;22.42;;;;;;;;;;5040899;28;20045;-64
2022/11/15 11:08:14;;;;;;;36.10;23.77;;;;;;;;;;5040618;28;20274;-65
2022/11/15 11:10:52;;;;;;;31.83;21.05;;;;;;;;;;5038121;28;20134;-65
2022/11/15 11:13:24;;;;;;;32.00;21.45;;;;;;;;;;5041351;28;20401;-64
2022/11/15 11:16:09;;;;;;;27.08;21.05;;;;;;;;;;5042155;28;20049;-65
2022/11/15 11:18:42;;;;;;;31.35;21.17;;;;;;;;;;5035617;28;20052;-64
2022/11/15 11:21:11;;;;;;;33.97;21.70;;;;;;;;;;5042190;28;20127;-65
2022/11/15 11:23:45;;;;;;;32.25;20.70;;;;;;;;;;5073322;28;20102;-65
2022/11/15 11:26:19;;;;;;;31.42;20.17;;;;;;;;;;5040059;28;20060;-65
2022/11/15 11:28:51;;;;;;;34.88;20.60;;;;;;;;;;5042673;28;20534;-64
2022/11/15 11:31:17;;;;;;;28.98;19.13;;;;;;;;;;5037792;28;20523;-65
2022/11/15 11:33:55;;;;;;;28.08;18.88;;;;;;;;;;5040062;28;20438;-65
2022/11/15 11:36:30;;;;;;;24.55;17.60;;;;;;;;;;5041252;28;20173;-65
2022/11/15 11:38:57;;;;;;;30.48;18.63;;;;;;;;;;5040892;28;20075;-64
2022/11/15 11:41:39;;;;;;;31.20;16.58;;;;;;;;;;5039987;28;20168;-65
2022/11/15 11:44:19;;;;;;;22.67;16.17;;;;;;;;;;5041961;28;20110;-64
2022/11/15 11:46:45;;;;;;;23.95;15.35;;;;;;;;;;5043959;28;20083;-64
2022/11/15 11:49:15;;;;;;;25.73;15.98;;;;;;;;;;5076141;28;20090;-64
2022/11/15 11:51:41;;;;;;;23.50;14.57;;;;;;;;;;5044247;28;20434;-65
2022/11/15 11:54:15;;;;;;;25.38;14.32;;;;;;;;;;5040921;28;20049;-64
2022/11/15 11:56:43;;;;;;;21.27;14.02;;;;;;;;;;5042477;28;20041;-65
2022/11/15 11:59:17;;;;;;;20.98;14.02;;;;;;;;;;5043261;28;20061;-65
2022/11/15 12:01:44;;;;;;;26.00;13.63;;;;;;;;;;5072880;28;20444;-66
2022/11/15 12:04:14;;;;;;;22.27;12.60;;;;;;;;;;5043726;28;20402;-65
2022/11/15 12:06:45;;;;;;;16.48;11.15;;;;;;;;;;5043387;28;20226;-65
2022/11/15 12:09:12;;;;;;;17.58;10.85;;;;;;;;;;5075319;28;20055;-65
2022/11/15 12:11:51;;;;;;;20.63;10.98;;;;;;;;;;5038787;28;20755;-65
2022/11/15 12:14:37;;;;;;;18.77;10.48;;;;;;;;;;5041718;28;20045;-65
2022/11/15 12:17:03;;;;;;;18.40;11.20;;;;;;;;;;5042565;28;20048;-65
2022/11/15 12:19:30;;;;;;;15.88;10.07;;;;;;;;;;5040951;28;20045;-65
2022/11/15 12:22:03;;;;;;;17.20;10.65;;;;;;;;;;5044750;28;20049;-65
2022/11/15 12:24:35;;;;;;;14.27;9.43;;;;;;;;;;5042799;28;20048;-65
2022/11/15 12:27:05;;;;;;;12.73;8.90;;;;;;;;;;5039652;28;20036;-64
2022/11/15 12:29:36;;;;;;;14.20;8.95;;;;;;;;;;5041740;28;20147;-65
2022/11/15 12:32:03;;;;;;;13.80;8.95;;;;;;;;;;5039540;28;20044;-65
2022/11/15 12:34:29;;;;;;;12.60;8.38;;;;;;;;;;5044475;28;20081;-65
2022/11/15 12:36:56;;;;;;;17.10;8.73;;;;;;;;;;5047819;28;20041;-65
2022/11/15 12:39:42;;;;;;;12.90;8.82;;;;;;;;;;5079502;28;20075;-65
2022/11/15 12:42:08;;;;;;;19.40;7.45;;;;;;;;;;5046163;28;20073;-65
2022/11/15 12:44:34;;;;;;;12.43;7.40;;;;;;;;;;5047632;28;20122;-66
2022/11/15 12:47:03;;;;;;;13.70;8.40;;;;;;;;;;5073056;28;20053;-65
2022/11/15 12:49:29;;;;;;;16.10;8.88;;;;;;;;;;5046921;28;20040;-66
2022/11/15 12:52:01;;;;;;;13.25;8.27;;;;;;;;;;5072085;28;20049;-65
2022/11/15 12:54:30;;;;;;;12.25;7.60;;;;;;;;;;5069915;28;20076;-65
2022/11/15 12:57:03;;;;;;;13.50;7.43;;;;;;;;;;5043871;28;20099;-66
2022/11/15 12:59:49;;;;;;;11.88;6.40;;;;;;;;;;5074700;28;20045;-65
2022/11/15 13:02:23;;;;;;;11.82;6.72;;;;;;;;;;5044548;28;20041;-65
2022/11/15 13:04:50;;;;;;;8.40;4.93;;;;;;;;;;5041243;28;20044;-65
2022/11/15 13:07:43;;;;;;;12.20;4.55;;;;;;;;;;5057581;28;20639;-65
2022/11/15 13:10:27;;;;;;;9.70;4.80;;;;;;;;;;5038690;28;20091;-65
2022/11/15 13:12:55;;;;;;;13.07;4.85;;;;;;;;;;5040063;28;20493;-65
2022/11/15 13:15:22;;;;;;;7.55;3.88;;;;;;;;;;5031809;28;20044;-64
2022/11/15 13:17:50;;;;;;;8.98;3.95;;;;;;;;;;5076719;28;20481;-64
2022/11/15 13:20:16;;;;;;;8.15;3.55;;;;;;;;;;5043121;28;20041;-64
2022/11/15 13:22:50;;;;;;;8.50;4.03;;;;;;;;;;5040687;28;20167;-65
2022/11/15 13:25:24;;;;;;;7.72;4.63;;;;;;;;;;5072578;28;20521;-64
2022/11/15 13:27:51;;;;;;;8.20;4.47;;;;;;;;;;5058069;28;20468;-64
2022/11/15 13:30:21;;;;;;;7.65;3.50;;;;;;;;;;5040353;28;20453;-65
2022/11/15 13:32:47;;;;;;;6.40;3.53;;;;;;;;;;5039863;28;20048;-65
2022/11/15 13:35:20;;;;;;;6.43;3.60;;;;;;;;;;5044567;28;20048;-64
2022/11/15 13:37:46;;;;;;;6.65;3.80;;;;;;;;;;5055644;28;20202;-65
2022/11/15 13:40:20;;;;;;;10.20;4.35;;;;;;;;;;5042439;28;20117;-65
2022/11/15 13:42:47;;;;;;;8.20;3.67;;;;;;;;;;5040260;28;20124;-65
2022/11/15 13:45:15;;;;;;;6.57;3.72;;;;;;;;;;5042851;28;20049;-64
2022/11/15 13:47:41;;;;;;;5.50;3.72;;;;;;;;;;5043825;28;20033;-64
2022/11/15 13:50:11;;;;;;;6.82;3.58;;;;;;;;;;5041817;28;20045;-64
2022/11/15 13:52:40;;;;;;;8.05;4.25;;;;;;;;;;5057354;28;20051;-64
2022/11/15 13:55:13;;;;;;;7.97;3.88;;;;;;;;;;5073466;28;20147;-65
2022/11/15 13:57:43;;;;;;;7.28;3.80;;;;;;;;;;5040314;28;20037;-64
2022/11/15 14:00:22;;;;;;;7.82;3.20;;;;;;;;;;5036919;28;20053;-64
2022/11/15 14:02:48;;;;;;;9.77;3.28;;;;;;;;;;5056282;28;20048;-64
2022/11/15 14:05:16;;;;;;;8.15;3.85;;;;;;;;;;5040045;28;20045;-64
2022/11/15 14:07:53;;;;;;;11.02;3.47;;;;;;;;;;5038667;28;20437;-64
2022/11/15 14:10:28;;;;;;;7.00;3.17;;;;;;;;;;5039725;28;20033;-64
2022/11/15 14:12:55;;;;;;;7.60;3.00;;;;;;;;;;5034614;28;20199;-64
2022/11/15 14:15:21;;;;;;;9.43;3.60;;;;;;;;;;5041706;28;20090;-64
2022/11/15 14:17:47;;;;;;;7.03;3.40;;;;;;;;;;5038849;28;20402;-64
2022/11/15 14:20:21;;;;;;;6.85;3.50;;;;;;;;;;5040233;28;20050;-64
2022/11/15 14:22:55;;;;;;;5.78;2.58;;;;;;;;;;5038998;28;20045;-64
2022/11/15 14:25:23;;;;;;;6.30;3.20;;;;;;;;;;5041221;28;20052;-64
2022/11/15 14:28:08;;;;;;;4.72;3.00;;;;;;;;;;5059112;28;20083;-64
2022/11/15 14:30:34;;;;;;;9.43;2.92;;;;;;;;;;5073562;28;20489;-64
2022/11/15 14:33:01;;;;;;;10.10;3.10;;;;;;;;;;5037418;28;20478;-64